»·PEaware :: N71649 KWHP-KCNO

N71649 :: KWHP-KCNO

FLIGHT INFORMATION

Flight Status: Arrived
Operator: Privately registered:
United States
More flights under this callsign
Pilot: Ke L. (11649)
Aircraft: CESSNA 182 SKYLANE
(C182)
More flights by this aircraft type
Origin: KWHP Whiteman
United States
Destination: KCNO Chino
United States
More flights between these airports :: More routes between these airports
Route: WHITEMAN1 VNY V186 PDZ
File this flight plan on PilotEdge
Remarks: TEC BURP8, Expecting VOR 26 Approach
Altitude:
(Current/Filed)
5,000ft
Speed:
(Current/Filed)
140kts
Departed: 30-Dec-20 07:33 PM
Arrived: 30-Dec-20 08:18 PM
Distance/Time
Traveled:
42nm/0:45
Distance/Time
To Go:
Arrived

Flight Plot

Page will automatically refresh every two minutes.

Flight plan parsing failed; only flown route is shown


Map Options




Map Legend


Flown Route
Filed Route
Departure Airport
Arrival Airport
Navaid (VOR, NDB)
Fix

Horizontal Profiles

Position Reports

Time Latitude Longitude Heading Altitude Ground
Speed
30-Dec-20 19:21 34.259522 -118.412208 318 992ft 0kts
30-Dec-20 19:22 34.259522 -118.412208 318 992ft 0kts
30-Dec-20 19:23 34.259522 -118.412208 318 992ft 0kts
30-Dec-20 19:24 34.259522 -118.412208 318 992ft 0kts
30-Dec-20 19:25 34.259522 -118.412208 318 992ft 0kts
30-Dec-20 19:26 34.259522 -118.412208 318 992ft 0kts
30-Dec-20 19:28 34.259522 -118.412208 318 992ft 0kts
30-Dec-20 19:29 34.259423 -118.412574 216 992ft 5kts
30-Dec-20 19:30 34.257324 -118.410705 141 980ft 12kts
30-Dec-20 19:31 34.255606 -118.408921 152 971ft 0kts
30-Dec-20 19:32 34.255606 -118.408921 152 971ft 0kts
30-Dec-20 19:33 34.257373 -118.411417 319 981ft 75kts
30-Dec-20 19:34 34.270089 -118.440055 274 2271ft 127kts
30-Dec-20 19:35 34.270321 -118.484812 274 3175ft 134kts
30-Dec-20 19:36 34.277232 -118.526526 305 4041ft 130kts
30-Dec-20 19:37 34.259084 -118.555826 157 4832ft 156kts
30-Dec-20 19:38 34.231227 -118.516080 109 5401ft 145kts
30-Dec-20 19:39 34.213415 -118.480147 109 4834ft 146kts
30-Dec-20 19:39 34.201126 -118.441625 104 5055ft 136kts
30-Dec-20 19:40 34.189340 -118.400395 101 5029ft 125kts
30-Dec-20 19:42 34.179857 -118.353456 103 5119ft 127kts
30-Dec-20 19:43 34.167171 -118.311849 105 5222ft 137kts
30-Dec-20 19:43 34.155610 -118.275135 106 5222ft 139kts
30-Dec-20 19:45 34.139288 -118.223285 107 5195ft 133kts
30-Dec-20 19:46 34.125608 -118.179380 109 5003ft 138kts
30-Dec-20 19:46 34.114130 -118.142956 116 4996ft 144kts
30-Dec-20 19:47 34.097996 -118.096091 117 5000ft 155kts
30-Dec-20 19:48 34.092565 -118.042846 96 5001ft 161kts
30-Dec-20 19:50 34.078132 -117.982740 106 5003ft 161kts
30-Dec-20 19:50 34.067411 -117.938819 113 5007ft 165kts
30-Dec-20 19:51 34.048762 -117.887913 112 5005ft 166kts
30-Dec-20 19:52 34.030278 -117.837028 111 5005ft 165kts
30-Dec-20 19:53 34.011983 -117.786509 111 5003ft 164kts
30-Dec-20 19:54 33.993671 -117.736015 110 5003ft 163kts
30-Dec-20 19:55 33.975492 -117.685967 110 5004ft 162kts
30-Dec-20 19:56 33.957328 -117.636014 110 5006ft 161kts
30-Dec-20 19:57 33.939582 -117.587314 109 5000ft 151kts
30-Dec-20 19:58 33.923659 -117.543718 108 5002ft 132kts
30-Dec-20 19:59 33.928204 -117.507788 53 5003ft 108kts
30-Dec-20 20:00 33.943354 -117.475599 55 4833ft 112kts
30-Dec-20 20:01 33.954691 -117.441730 95 4613ft 112kts
30-Dec-20 20:02 33.948656 -117.408196 94 4597ft 96kts
30-Dec-20 20:03 33.942976 -117.375223 114 4579ft 106kts
30-Dec-20 20:04 33.918652 -117.354848 144 4581ft 105kts
30-Dec-20 20:05 33.921205 -117.332343 22 4522ft 88kts
30-Dec-20 20:06 33.936275 -117.348977 288 4265ft 106kts
30-Dec-20 20:07 33.942334 -117.378451 289 3923ft 63kts
30-Dec-20 20:08 33.946264 -117.400143 289 3894ft 73kts
30-Dec-20 20:09 33.951277 -117.425360 289 3886ft 78kts
30-Dec-20 20:10 33.955478 -117.451401 282 3886ft 79kts
30-Dec-20 20:11 33.958389 -117.478731 282 3549ft 83kts
30-Dec-20 20:12 33.961379 -117.506891 282 3059ft 85kts
30-Dec-20 20:13 33.964354 -117.534916 281 2592ft 83kts
30-Dec-20 20:14 33.967192 -117.562225 280 2170ft 83kts
30-Dec-20 20:15 33.970093 -117.590107 279 1681ft 84kts
30-Dec-20 20:16 33.974298 -117.617090 290 1198ft 71kts
30-Dec-20 20:17 33.975863 -117.634934 300 632ft 13kts
30-Dec-20 20:18 33.976577 -117.639213 0 629ft 0kts
30-Dec-20 20:19 33.977397 -117.637910 59 632ft 14kts

Navigation Log

Ident Type
Flight plan parsing failed, navigation log unavailable